Time,TemperatureF,DewpointF,PressureIn,WindDirection,WindDirectionDegrees,WindSpeedMPH,WindSpeedGustMPH,Humidity,HourlyPrecipIn,Conditions,Clouds,dailyrainin,SolarRadiationWatts/m^2,SoftwareType,DateUTC
2013-04-06 00:09:00,30.2,19.1,29.86,NW,318,9.0,18.0,63,0.00,,CLR,0.00,0.00,VWS V14.01,2013-04-06 04:09:00,
2013-04-06 00:19:00,29.9,19.2,29.86,WNW,303,5.0,10.0,64,0.00,,CLR,0.00,0.00,VWS V14.01,2013-04-06 04:19:00,
2013-04-06 00:29:00,29.7,19.4,29.87,NW,324,10.0,13.0,65,0.00,,CLR,0.00,0.00,VWS V14.01,2013-04-06 04:29:00,
2013-04-06 00:39:00,29.5,19.2,29.86,NNW,328,13.0,17.0,65,0.00,,CLR,0.00,0.00,VWS V14.01,2013-04-06 04:39:00,
2013-04-06 00:49:00,29.4,19.1,29.87,WNW,287,16.0,22.0,65,0.00,,CLR,0.00,0.00,VWS V14.01,2013-04-06 04:49:00,
2013-04-06 00:59:00,29.2,18.5,29.88,WNW,301,11.0,18.0,64,0.00,,CLR,0.00,0.00,VWS V14.01,2013-04-06 04:59:00,
2013-04-06 01:09:00,29.0,18.0,29.88,NW,321,6.0,16.0,63,0.00,,CLR,0.00,0.00,VWS V14.01,2013-04-06 05:09:00,
2013-04-06 01:19:00,28.7,17.3,29.88,NW,306,13.0,20.0,62,0.00,,CLR,0.00,0.00,VWS V14.01,2013-04-06 05:19:00,
2013-04-06 01:29:00,28.3,17.3,29.88,NW,319,13.0,18.0,63,0.00,,CLR,0.00,0.00,VWS V14.01,2013-04-06 05:29:00,
2013-04-06 01:39:00,28.2,17.2,29.89,WNW,288,12.0,19.0,63,0.00,,CLR,0.00,0.00,VWS V14.01,2013-04-06 05:39:00,
2013-04-06 01:49:00,28.1,16.8,29.89,WNW,288,5.0,16.0,62,0.00,,CLR,0.00,0.00,VWS V14.01,2013-04-06 05:49:00,
2013-04-06 01:59:00,28.0,16.7,29.89,NW,311,10.0,16.0,62,0.00,,CLR,0.00,0.00,VWS V14.01,2013-04-06 05:59:00,
2013-04-06 02:09:00,28.1,16.8,29.89,NW,325,5.0,16.0,62,0.00,,CLR,0.00,0.00,VWS V14.01,2013-04-06 06:09:00,
2013-04-06 02:29:00,27.8,16.1,29.90,NW,304,5.0,17.0,61,0.00,,CLR,0.00,0.00,VWS V14.01,2013-04-06 06:29:00,
2013-04-06 02:39:00,27.7,15.3,29.89,NW,321,22.0,30.0,59,0.00,,CLR,0.00,0.00,VWS V14.01,2013-04-06 06:39:00,
2013-04-06 02:49:00,27.5,13.9,29.90,NW,317,10.0,22.0,56,0.00,,CLR,0.00,0.00,VWS V14.01,2013-04-06 06:49:00,
2013-04-06 02:59:00,27.0,13.4,29.91,NNW,342,18.0,19.0,56,0.00,,CLR,0.00,0.00,VWS V14.01,2013-04-06 06:59:00,
2013-04-06 03:09:00,26.8,13.6,29.91,NW,320,10.0,24.0,57,0.00,,CLR,0.00,0.00,VWS V14.01,2013-04-06 07:09:00,
2013-04-06 03:19:00,26.6,13.4,29.92,NW,318,5.0,15.0,57,0.00,,CLR,0.00,0.00,VWS V14.01,2013-04-06 07:19:00,
2013-04-06 03:29:00,26.4,13.2,29.92,NW,313,7.0,17.0,57,0.00,,CLR,0.00,0.00,VWS V14.01,2013-04-06 07:29:00,
2013-04-06 03:39:00,26.2,13.8,29.93,NNW,333,5.0,15.0,59,0.00,,CLR,0.00,0.00,VWS V14.01,2013-04-06 07:39:00,
2013-04-06 03:49:00,26.2,13.8,29.94,NW,314,3.0,15.0,59,0.00,,CLR,0.00,0.00,VWS V14.01,2013-04-06 07:49:00,
2013-04-06 03:59:00,26.1,14.1,29.94,NW,305,8.0,13.0,60,0.00,,CLR,0.00,0.00,VWS V14.01,2013-04-06 07:59:00,
2013-04-06 04:09:00,25.9,13.6,29.95,NW,311,4.0,17.0,59,0.00,,CLR,0.00,0.00,VWS V14.01,2013-04-06 08:09:00,
2013-04-06 04:19:00,25.7,12.6,29.96,NW,321,7.0,14.0,57,0.00,,CLR,0.00,0.00,VWS V14.01,2013-04-06 08:19:00,
2013-04-06 04:29:00,25.3,11.8,29.97,NW,304,7.0,24.0,56,0.00,,CLR,0.00,0.00,VWS V14.01,2013-04-06 08:29:00,
2013-04-06 04:39:00,24.9,11.8,29.98,NW,311,8.0,16.0,57,0.00,,CLR,0.00,0.00,VWS V14.01,2013-04-06 08:39:00,
2013-04-06 04:49:00,24.6,11.2,29.98,NW,315,10.0,16.0,56,0.00,,SCT060,0.00,0.00,VWS V14.01,2013-04-06 08:49:00,
2013-04-06 04:59:00,24.4,11.4,29.99,NNW,331,10.0,20.0,57,0.00,,SCT060,0.00,0.00,VWS V14.01,2013-04-06 08:59:00,
2013-04-06 05:09:00,24.0,11.4,30.00,NW,315,6.0,17.0,58,0.00,,SCT060,0.00,0.00,VWS V14.01,2013-04-06 09:09:00,
2013-04-06 05:19:00,23.9,11.3,30.00,NW,308,6.0,24.0,58,0.00,,SCT060,0.00,0.00,VWS V14.01,2013-04-06 09:19:00,
2013-04-06 05:29:00,23.4,10.8,30.01,NW,309,13.0,22.0,58,0.00,,SCT060,0.00,0.00,VWS V14.01,2013-04-06 09:29:00,
2013-04-06 05:39:00,23.1,10.1,30.01,NW,320,10.0,22.0,57,0.00,,SCT060,0.00,0.00,VWS V14.01,2013-04-06 09:39:00,
2013-04-06 05:49:00,23.0,8.9,30.02,WNW,299,8.0,25.0,54,0.00,,OVC055,0.00,0.00,VWS V14.01,2013-04-06 09:49:00,
2013-04-06 05:59:00,22.8,9.1,30.03,WNW,300,9.0,24.0,55,0.00,,OVC055,0.00,0.00,VWS V14.01,2013-04-06 09:59:00,
2013-04-06 06:09:00,22.6,8.9,30.04,WNW,299,12.0,21.0,55,0.00,,OVC055,0.00,0.00,VWS V14.01,2013-04-06 10:09:00,
2013-04-06 06:19:00,22.5,9.6,30.05,NNW,329,3.0,22.0,57,0.00,,OVC055,0.00,5.00,VWS V14.01,2013-04-06 10:19:00,
2013-04-06 06:29:00,21.9,9.4,30.06,NW,317,7.0,20.0,58,0.00,,OVC055,0.00,12.00,VWS V14.01,2013-04-06 10:29:00,
2013-04-06 06:39:00,21.7,9.6,30.07,NW,322,8.0,21.0,59,0.00,,OVC055,0.00,19.00,VWS V14.01,2013-04-06 10:39:00,
2013-04-06 06:49:00,21.6,9.1,30.07,NW,324,14.0,25.0,58,0.00,,OVC060,0.00,35.00,VWS V14.01,2013-04-06 10:49:00,
2013-04-06 06:59:00,21.5,9.4,30.08,NW,312,16.0,23.0,59,0.00,,OVC060,0.00,54.00,VWS V14.01,2013-04-06 10:59:00,
2013-04-06 07:19:00,21.3,10.0,30.09,NNW,331,9.0,19.0,61,0.00,,OVC060,0.00,116.00,VWS V14.01,2013-04-06 11:19:00,
2013-04-06 07:29:00,21.6,10.2,30.09,NW,309,7.0,19.0,61,0.00,,OVC060,0.00,128.00,VWS V14.01,2013-04-06 11:29:00,
2013-04-06 07:39:00,21.8,9.3,30.09,NNW,341,14.0,22.0,58,0.00,,OVC060,0.00,141.00,VWS V14.01,2013-04-06 11:39:00,
2013-04-06 07:49:00,22.0,8.3,30.09,NW,319,17.0,28.0,55,0.00,,CLR,0.00,181.00,VWS V14.01,2013-04-06 11:49:00,
2013-04-06 07:59:00,21.9,7.0,30.10,WNW,300,12.0,30.0,52,0.00,,CLR,0.00,236.00,VWS V14.01,2013-04-06 11:59:00,
2013-04-06 08:09:00,22.0,7.1,30.11,WNW,296,11.0,26.0,52,0.00,,CLR,0.00,288.00,VWS V14.01,2013-04-06 12:09:00,
2013-04-06 08:19:00,21.9,7.4,30.12,NNW,329,19.0,24.0,53,0.00,,CLR,0.00,348.00,VWS V14.01,2013-04-06 12:19:00,
2013-04-06 08:29:00,22.1,8.0,30.13,NW,313,16.0,22.0,54,0.00,,CLR,0.00,390.00,VWS V14.01,2013-04-06 12:29:00,
2013-04-06 08:39:00,22.6,8.5,30.13,NW,304,4.0,27.0,54,0.00,,CLR,0.00,427.00,VWS V14.01,2013-04-06 12:39:00,
2013-04-06 08:49:00,22.6,7.6,30.12,WNW,302,12.0,23.0,52,0.00,,CLR,0.00,455.00,VWS V14.01,2013-04-06 12:49:00,
2013-04-06 08:59:00,22.9,8.3,30.12,NW,310,11.0,23.0,53,0.00,,CLR,0.00,489.00,VWS V14.01,2013-04-06 12:59:00,
2013-04-06 09:09:00,23.2,8.6,30.12,WNW,292,11.0,21.0,53,0.00,,CLR,0.00,519.00,VWS V14.01,2013-04-06 13:09:00,
2013-04-06 09:19:00,23.7,6.4,30.12,NW,311,11.0,26.0,47,0.00,,CLR,0.00,547.00,VWS V14.01,2013-04-06 13:19:00,
2013-04-06 09:29:00,24.1,5.8,30.13,NW,322,13.0,22.0,45,0.00,,CLR,0.00,575.00,VWS V14.01,2013-04-06 13:29:00,
2013-04-06 09:39:00,24.2,4.9,30.14,West,271,6.0,25.0,43,0.00,,CLR,0.00,603.00,VWS V14.01,2013-04-06 13:39:00,
2013-04-06 09:49:00,25.1,4.2,30.14,NW,318,15.0,25.0,40,0.00,,CLR,0.00,629.00,VWS V14.01,2013-04-06 13:49:00,
2013-04-06 09:59:00,25.0,3.0,30.15,NW,315,13.0,23.0,38,0.00,,CLR,0.00,656.00,VWS V14.01,2013-04-06 13:59:00,
2013-04-06 10:09:00,25.7,5.3,30.16,NW,313,12.0,24.0,41,0.00,,CLR,0.00,679.00,VWS V14.01,2013-04-06 14:09:00,
2013-04-06 10:19:00,25.7,5.3,30.16,NW,307,8.0,25.0,41,0.00,,CLR,0.00,701.00,VWS V14.01,2013-04-06 14:19:00,
2013-04-06 10:29:00,26.2,4.6,30.16,NW,313,17.0,25.0,39,0.00,,CLR,0.00,698.00,VWS V14.01,2013-04-06 14:29:00,
2013-04-06 10:39:00,26.2,4.6,30.16,WNW,303,13.0,25.0,39,0.00,,CLR,0.00,657.00,VWS V14.01,2013-04-06 14:39:00,
2013-04-06 10:49:00,26.2,4.1,30.17,North,360,15.0,23.0,38,0.00,,CLR,0.00,580.00,VWS V14.01,2013-04-06 14:49:00,
2013-04-06 10:59:00,27.4,5.2,30.17,WNW,287,7.0,22.0,38,0.00,,CLR,0.00,520.00,VWS V14.01,2013-04-06 14:59:00,
2013-04-06 11:09:00,28.0,5.7,30.17,NW,309,9.0,28.0,38,0.00,,CLR,0.00,533.00,VWS V14.01,2013-04-06 15:09:00,
2013-04-06 11:19:00,27.9,5.6,30.18,NW,321,8.0,27.0,38,0.00,,CLR,0.00,621.00,VWS V14.01,2013-04-06 15:19:00,
2013-04-06 11:29:00,28.6,5.0,30.18,NW,308,10.0,20.0,36,0.00,,CLR,0.00,744.00,VWS V14.01,2013-04-06 15:29:00,
2013-04-06 11:39:00,28.8,4.0,30.18,NNW,334,20.0,26.0,34,0.00,,CLR,0.00,823.00,VWS V14.01,2013-04-06 15:39:00,
2013-04-06 11:49:00,28.9,4.7,30.19,NNW,348,6.0,23.0,35,0.00,,CLR,0.00,846.00,VWS V14.01,2013-04-06 15:49:00,
2013-04-06 11:59:00,29.4,3.9,30.19,NNW,342,10.0,20.0,33,0.00,,CLR,0.00,854.00,VWS V14.01,2013-04-06 15:59:00,
2013-04-06 12:09:00,29.2,3.7,30.19,NW,326,24.0,26.0,33,0.00,,CLR,0.00,860.00,VWS V14.01,2013-04-06 16:09:00,
2013-04-06 12:19:00,29.9,4.3,30.19,NW,318,10.0,24.0,33,0.00,,CLR,0.00,868.00,VWS V14.01,2013-04-06 16:19:00,
2013-04-06 12:29:00,30.7,6.3,30.19,WNW,294,8.0,18.0,35,0.00,,CLR,0.00,870.00,VWS V14.01,2013-04-06 16:29:00,
2013-04-06 12:39:00,30.5,4.2,30.19,NNW,348,17.0,28.0,32,0.00,,CLR,0.00,874.00,VWS V14.01,2013-04-06 16:39:00,
2013-04-06 12:49:00,30.8,5.1,30.18,NW,309,17.0,23.0,33,0.00,,CLR,0.00,872.00,VWS V14.01,2013-04-06 16:49:00,
2013-04-06 12:59:00,31.0,5.3,30.19,NW,315,18.0,24.0,33,0.00,,CLR,0.00,872.00,VWS V14.01,2013-04-06 16:59:00,
2013-04-06 13:09:00,31.9,6.1,30.19,West,278,9.0,20.0,33,0.00,,CLR,0.00,867.00,VWS V14.01,2013-04-06 17:09:00,
2013-04-06 13:19:00,32.3,5.1,30.19,NW,311,8.0,18.0,31,0.00,,CLR,0.00,863.00,VWS V14.01,2013-04-06 17:19:00,
2013-04-06 13:29:00,32.7,4.0,30.20,NW,319,13.0,20.0,29,0.00,,CLR,0.00,856.00,VWS V14.01,2013-04-06 17:29:00,
2013-04-06 13:39:00,32.6,6.0,30.20,NW,319,8.0,15.0,32,0.00,,CLR,0.00,846.00,VWS V14.01,2013-04-06 17:39:00,
2013-04-06 13:49:00,32.7,5.4,30.20,NW,324,6.0,16.0,31,0.00,,CLR,0.00,838.00,VWS V14.01,2013-04-06 17:49:00,
2013-04-06 13:59:00,34.1,5.9,30.19,NW,318,12.0,14.0,30,0.00,,CLR,0.00,830.00,VWS V14.01,2013-04-06 17:59:00,
2013-04-06 14:09:00,34.1,5.9,30.19,WNW,292,6.0,15.0,30,0.00,,CLR,0.00,816.00,VWS V14.01,2013-04-06 18:09:00,
2013-04-06 14:19:00,34.4,6.9,30.19,West,279,8.0,16.0,31,0.00,,CLR,0.00,802.00,VWS V14.01,2013-04-06 18:19:00,
2013-04-06 14:29:00,34.0,5.8,30.19,NW,307,5.0,14.0,30,0.00,,CLR,0.00,788.00,VWS V14.01,2013-04-06 18:29:00,
2013-04-06 14:39:00,34.7,9.2,30.20,WNW,303,2.0,16.0,34,0.00,,CLR,0.00,772.00,VWS V14.01,2013-04-06 18:39:00,
2013-04-06 14:49:00,35.2,7.6,30.19,NNW,331,17.0,17.0,31,0.00,,CLR,0.00,752.00,VWS V14.01,2013-04-06 18:49:00,
2013-04-06 14:59:00,34.6,6.4,30.19,NNW,329,9.0,20.0,30,0.00,,CLR,0.00,735.00,VWS V14.01,2013-04-06 18:59:00,
2013-04-06 15:09:00,35.0,6.0,30.19,WNW,302,3.0,19.0,29,0.00,,CLR,0.00,715.00,VWS V14.01,2013-04-06 19:09:00,
2013-04-06 15:19:00,35.1,5.3,30.19,WNW,291,7.0,16.0,28,0.00,,CLR,0.00,691.00,VWS V14.01,2013-04-06 19:19:00,
2013-04-06 15:29:00,35.8,6.7,30.19,NW,304,10.0,18.0,29,0.00,,CLR,0.00,666.00,VWS V14.01,2013-04-06 19:29:00,
2013-04-06 15:39:00,35.5,6.4,30.19,NW,317,10.0,16.0,29,0.00,,CLR,0.00,642.00,VWS V14.01,2013-04-06 19:39:00,
2013-04-06 15:49:00,35.7,5.8,30.19,NW,323,16.0,19.0,28,0.00,,CLR,0.00,617.00,VWS V14.01,2013-04-06 19:49:00,
2013-04-06 15:59:00,36.0,5.3,30.19,NW,325,8.0,19.0,27,0.00,,CLR,0.00,589.00,VWS V14.01,2013-04-06 19:59:00,
2013-04-06 16:09:00,36.7,7.4,30.19,NW,308,4.0,15.0,29,0.00,,CLR,0.00,564.00,VWS V14.01,2013-04-06 20:09:00,
2013-04-06 16:19:00,36.4,7.2,30.20,NW,319,9.0,15.0,29,0.00,,CLR,0.00,534.00,VWS V14.01,2013-04-06 20:19:00,
2013-04-06 16:29:00,37.1,5.4,30.20,WNW,288,7.0,16.0,26,0.00,,CLR,0.00,506.00,VWS V14.01,2013-04-06 20:29:00,
2013-04-06 16:39:00,37.3,8.7,30.20,NW,306,6.0,14.0,30,0.00,,CLR,0.00,476.00,VWS V14.01,2013-04-06 20:39:00,
2013-04-06 16:49:00,37.3,6.4,30.20,WNW,291,4.0,15.0,27,0.00,,CLR,0.00,448.00,VWS V14.01,2013-04-06 20:49:00,
2013-04-06 16:59:00,37.5,6.6,30.20,West,264,7.0,13.0,27,0.00,,CLR,0.00,418.00,VWS V14.01,2013-04-06 20:59:00,
2013-04-06 17:09:00,38.0,7.0,30.21,NNW,327,8.0,9.0,27,0.00,,CLR,0.00,387.00,VWS V14.01,2013-04-06 21:09:00,
2013-04-06 17:19:00,37.4,5.7,30.21,NW,311,4.0,13.0,26,0.00,,CLR,0.00,345.00,VWS V14.01,2013-04-06 21:19:00,
2013-04-06 17:29:00,37.3,6.4,30.22,West,272,3.0,10.0,27,0.00,,CLR,0.00,315.00,VWS V14.01,2013-04-06 21:29:00,
2013-04-06 17:39:00,37.7,5.1,30.23,West,259,2.0,9.0,25,0.00,,CLR,0.00,90.00,VWS V14.01,2013-04-06 21:39:00,
2013-04-06 17:49:00,37.1,5.4,30.23,NW,311,7.0,11.0,26,0.00,,CLR,0.00,47.00,VWS V14.01,2013-04-06 21:49:00,
2013-04-06 17:59:00,36.9,5.2,30.24,WNW,284,3.0,12.0,26,0.00,,CLR,0.00,62.00,VWS V14.01,2013-04-06 21:59:00,
2013-04-06 18:09:00,37.1,5.4,30.24,WNW,284,2.0,10.0,26,0.00,,CLR,0.00,54.00,VWS V14.01,2013-04-06 22:09:00,
2013-04-06 18:29:00,37.0,5.3,30.24,WNW,287,1.0,7.0,26,0.00,,CLR,0.00,47.00,VWS V14.01,2013-04-06 22:29:00,
2013-04-06 18:39:00,36.8,6.0,30.24,West,272,1.0,6.0,27,0.00,,CLR,0.00,33.00,VWS V14.01,2013-04-06 22:39:00,
2013-04-06 18:49:00,36.6,5.8,30.24,WNW,290,3.0,9.0,27,0.00,,CLR,0.00,26.00,VWS V14.01,2013-04-06 22:49:00,
2013-04-06 18:59:00,36.5,6.5,30.25,WNW,286,2.0,5.0,28,0.00,,CLR,0.00,18.00,VWS V14.01,2013-04-06 22:59:00,
2013-04-06 19:09:00,35.9,6.0,30.25,NW,306,5.0,7.0,28,0.00,,CLR,0.00,11.00,VWS V14.01,2013-04-06 23:09:00,
2013-04-06 19:19:00,35.3,5.5,30.26,West,279,0.0,6.0,28,0.00,,CLR,0.00,5.00,VWS V14.01,2013-04-06 23:19:00,
2013-04-06 19:29:00,34.7,4.2,30.26,West,279,0.0,1.0,27,0.00,,CLR,0.00,0.00,VWS V14.01,2013-04-06 23:29:00,
2013-04-06 19:39:00,34.4,4.7,30.27,West,279,0.0,2.0,28,0.00,,CLR,0.00,0.00,VWS V14.01,2013-04-06 23:39:00,
2013-04-06 19:49:00,34.1,4.4,30.27,West,279,0.0,0.0,28,0.00,,CLR,0.00,0.00,VWS V14.01,2013-04-06 23:49:00,
2013-04-06 19:59:00,34.0,5.1,30.27,West,279,0.0,2.0,29,0.00,,CLR,0.00,0.00,VWS V14.01,2013-04-06 23:59:00,
2013-04-06 20:09:00,33.8,4.9,30.28,West,279,0.0,0.0,29,0.00,,CLR,0.00,0.00,VWS V14.01,2013-04-07 00:09:00,
2013-04-06 20:19:00,33.6,6.2,30.28,West,280,0.0,2.0,31,0.00,,CLR,0.00,0.00,VWS V14.01,2013-04-07 00:19:00,
2013-04-06 20:29:00,33.4,5.3,30.28,West,279,0.0,0.0,30,0.00,,CLR,0.00,0.00,VWS V14.01,2013-04-07 00:29:00,
2013-04-06 20:39:00,33.1,5.1,30.28,West,279,0.0,0.0,30,0.00,,CLR,0.00,0.00,VWS V14.01,2013-04-07 00:39:00,
2013-04-06 20:49:00,33.5,5.4,30.28,West,279,0.0,3.0,30,0.00,,CLR,0.00,0.00,VWS V14.01,2013-04-07 00:49:00,
2013-04-06 20:59:00,33.4,4.6,30.29,West,279,0.0,2.0,29,0.00,,CLR,0.00,0.00,VWS V14.01,2013-04-07 00:59:00,
2013-04-06 21:09:00,33.2,5.1,30.29,West,279,0.0,1.0,30,0.00,,CLR,0.00,0.00,VWS V14.01,2013-04-07 01:09:00,
2013-04-06 21:19:00,32.7,4.7,30.29,West,279,0.0,1.0,30,0.00,,CLR,0.00,0.00,VWS V14.01,2013-04-07 01:19:00,
2013-04-06 21:29:00,33.0,5.0,30.30,West,279,0.0,1.0,30,0.00,,CLR,0.00,0.00,VWS V14.01,2013-04-07 01:29:00,
2013-04-06 21:39:00,33.0,5.0,30.30,West,279,0.0,1.0,30,0.00,,CLR,0.00,0.00,VWS V14.01,2013-04-07 01:39:00,
2013-04-06 21:49:00,33.5,6.8,30.29,West,279,0.0,1.0,32,0.00,,CLR,0.00,0.00,VWS V14.01,2013-04-07 01:49:00,
2013-04-06 21:59:00,33.5,6.8,30.30,West,279,0.0,1.0,32,0.00,,CLR,0.00,0.00,VWS V14.01,2013-04-07 01:59:00,
2013-04-06 22:09:00,33.2,5.1,30.30,West,280,0.0,1.0,30,0.00,,CLR,0.00,0.00,VWS V14.01,2013-04-07 02:09:00,
2013-04-06 22:19:00,32.3,5.8,30.30,West,279,0.0,1.0,32,0.00,,CLR,0.00,0.00,VWS V14.01,2013-04-07 02:19:00,
2013-04-06 22:29:00,31.6,5.1,30.30,West,279,0.0,0.0,32,0.00,,CLR,0.00,0.00,VWS V14.01,2013-04-07 02:29:00,
2013-04-06 22:39:00,31.5,5.1,30.30,West,280,0.0,0.0,32,0.00,,CLR,0.00,0.00,VWS V14.01,2013-04-07 02:39:00,
2013-04-06 22:49:00,31.6,5.1,30.30,West,279,0.0,0.0,32,0.00,,CLR,0.00,0.00,VWS V14.01,2013-04-07 02:49:00,
2013-04-06 22:59:00,31.6,5.1,30.30,West,279,0.0,1.0,32,0.00,,CLR,0.00,0.00,VWS V14.01,2013-04-07 02:59:00,
2013-04-06 23:09:00,31.5,5.7,30.30,West,279,0.0,1.0,33,0.00,,CLR,0.00,0.00,VWS V14.01,2013-04-07 03:09:00,
2013-04-06 23:19:00,31.2,5.5,30.30,West,279,0.0,2.0,33,0.00,,CLR,0.00,0.00,VWS V14.01,2013-04-07 03:19:00,
2013-04-06 23:29:00,31.3,5.6,30.29,West,279,0.0,1.0,33,0.00,,CLR,0.00,0.00,VWS V14.01,2013-04-07 03:29:00,
2013-04-06 23:39:00,31.2,5.5,30.29,West,279,0.0,1.0,33,0.00,,CLR,0.00,0.00,VWS V14.01,2013-04-07 03:39:00,
2013-04-06 23:49:00,30.9,6.5,30.29,West,279,0.0,2.0,35,0.00,,CLR,0.00,0.00,VWS V14.01,2013-04-07 03:49:00,
2013-04-06 23:59:00,30.6,5.6,30.29,West,279,0.0,0.0,34,0.00,,CLR,0.00,0.00,VWS V14.01,2013-04-07 03:59:00,